Desert Springs, Nevada Weather observations

Data are for 10 minute period ending at time listed.
 Day   Time    Ave.   Ave.  Ave.  Vector   Max.   Total    Solar   
  of    of     Air    Rel.  Wind   Wind    Wind  Precip.   Rad.    
Year   Day     Temp.  Hum.  Speed  Dir.    Gust                    
2015   (PST)    F      %     mph   deg.    mph     in.     W/m2    
------------------------------------------------------------------- 
 116    8:00   45.0    49    3.0    64      8.0    2.19     443  
 116    9:00   47.0    44    5.0    20     11.0    2.19     669  
 116   10:00   48.0    40    7.0   360     16.0    2.19     836  
 116   11:00   50.0    35    6.0   321     13.0    2.19     935  
 116   12:00   53.0    35    6.0   317     13.0    2.19     978  
 116   13:00   54.0    32    9.0    84     17.0    2.19     967  
 116   14:00   54.0    28    6.0    41     15.0    2.19     875  
 116   15:00   57.0    27    7.0    15     13.0    2.19     830  
 116   16:00   58.0    25    6.0    71     16.0    2.19     680  
 116   17:00   57.0    25    8.0   104     18.0    2.19     483  
 116   18:00   56.0    27    5.0    90     14.0    2.19     296  
 116   19:00   53.0    33    5.0   102     11.0    2.19      95  
 116   20:00   49.0    38    4.0    70      5.0    2.19       2  
 116   21:00   47.0    41    5.0    33      6.0    2.19       0  
 116   22:00   47.0    38    4.0    52      6.0    2.19       0  
 116   23:00   46.0    40    3.0    46      6.0    2.19       0  
 117    0:00   45.0    45    4.0   137      5.0    2.19       0  
 117    1:00   46.0    42    5.0   138      7.0    2.19       0  
 117    2:00   44.0    44    2.0   236      5.0    2.19       0  
 117    3:00   43.0    48    8.0   132      9.0    2.19       0  
 117    4:00   42.0    50    3.0    12     10.0    2.19       0  
 117    5:00   40.0    55    2.0   261      5.0    2.19       0  
 117    6:00   44.0    46    3.0   103      6.0    2.19      15  
 117    7:00   47.0    45    4.0    42      6.0    2.19     195  

Return to Desert Springs, Nevada graphs page.


Western Regional Climate Center,wrcc@dri.edu